createdAt,value
2019-03-19T00:00:04.655Z,83.59
2019-03-19T00:01:10.076Z,83.66
2019-03-19T00:02:15.651Z,84.24
2019-03-19T00:03:21.349Z,84.75
2019-03-19T00:04:27.594Z,84.99
2019-03-19T00:05:32.800Z,84.48
2019-03-19T00:06:38.475Z,84.64
2019-03-19T00:07:44.050Z,85.06
2019-03-19T00:08:49.766Z,85.37
2019-03-19T00:09:55.337Z,85.20
2019-03-19T00:11:00.959Z,85.73
2019-03-19T00:12:06.515Z,85.74
2019-03-19T00:13:12.141Z,86.25
2019-03-19T00:14:17.760Z,86.75
2019-03-19T00:15:23.386Z,86.86
2019-03-19T00:16:28.976Z,87.36
2019-03-19T00:17:34.190Z,86.88
2019-03-19T00:18:39.797Z,86.21
2019-03-19T00:19:45.396Z,85.71
2019-03-19T00:20:50.971Z,85.36
2019-03-19T00:21:56.528Z,85.33
2019-03-19T00:23:02.176Z,84.84
2019-03-19T00:24:07.405Z,85.70
2019-03-19T00:25:12.266Z,85.66
2019-03-19T00:26:17.988Z,86.60
2019-03-19T00:27:23.556Z,87.15
2019-03-19T00:28:29.204Z,86.34
2019-03-19T00:29:34.825Z,85.56
2019-03-19T00:30:40.417Z,85.76
2019-03-19T00:31:45.992Z,85.90
2019-03-19T00:32:51.573Z,86.93
2019-03-19T00:33:57.205Z,87.17
2019-03-19T00:35:02.484Z,86.74
2019-03-19T00:36:08.031Z,87.42
2019-03-19T00:37:13.627Z,86.78
2019-03-19T00:38:19.254Z,87.14
2019-03-19T00:39:24.857Z,86.76
2019-03-19T00:40:30.442Z,87.57
2019-03-19T00:41:35.990Z,86.37
2019-03-19T00:42:41.557Z,86.48
2019-03-19T00:43:47.169Z,87.22
2019-03-19T00:44:52.804Z,86.23
2019-03-19T00:45:58.405Z,85.87
2019-03-19T00:47:04.009Z,87.19
2019-03-19T00:48:09.556Z,87.88
2019-03-19T00:49:15.192Z,88.45
2019-03-19T00:50:20.749Z,89.38
2019-03-19T00:51:26.346Z,89.79
2019-03-19T00:52:31.917Z,88.86
2019-03-19T00:53:37.514Z,89.10
2019-03-19T00:54:43.062Z,88.30
2019-03-19T00:55:48.657Z,88.96
2019-03-19T00:56:54.244Z,89.07
2019-03-19T00:57:59.857Z,89.40
2019-03-19T00:59:04.808Z,90.10
2019-03-19T01:00:12.113Z,89.22
2019-03-19T01:01:17.348Z,89.99
2019-03-19T01:02:22.914Z,90.17
2019-03-19T01:03:28.537Z,90.20
2019-03-19T01:04:34.143Z,90.20
2019-03-19T01:05:39.690Z,89.48
2019-03-19T01:06:45.307Z,88.95
2019-03-19T01:07:50.881Z,89.36
2019-03-19T01:08:56.112Z,89.98
2019-03-19T01:10:01.651Z,89.42
2019-03-19T01:11:07.220Z,89.90
2019-03-19T01:12:12.817Z,90.38
2019-03-19T01:13:18.381Z,89.97
2019-03-19T01:14:24.002Z,90.95
2019-03-19T01:15:29.595Z,91.49
2019-03-19T01:16:35.177Z,91.42
2019-03-19T01:17:40.448Z,91.32
2019-03-19T01:18:46.083Z,92.03
2019-03-19T01:19:51.625Z,92.29
2019-03-19T01:20:57.188Z,92.78
2019-03-19T01:22:02.783Z,92.78
2019-03-19T01:23:08.358Z,92.59
2019-03-19T01:24:13.943Z,92.37
2019-03-19T01:25:19.525Z,91.98
2019-03-19T01:26:25.146Z,92.95
2019-03-19T01:27:30.759Z,93.40
2019-03-19T01:28:36.349Z,93.40
2019-03-19T01:29:41.951Z,93.21
2019-03-19T01:30:47.552Z,91.87
2019-03-19T01:31:53.101Z,91.37
2019-03-19T01:32:58.687Z,90.74
2019-03-19T01:34:03.919Z,90.77
2019-03-19T01:35:09.217Z,90.88
2019-03-19T01:36:14.769Z,91.74
2019-03-19T01:37:20.388Z,92.23
2019-03-19T01:38:26.006Z,93.01
2019-03-19T01:39:31.603Z,93.08
2019-03-19T01:40:37.163Z,93.39
2019-03-19T01:41:42.733Z,93.39
2019-03-19T01:42:48.276Z,92.70
2019-03-19T01:43:53.834Z,92.97
2019-03-19T01:44:59.431Z,93.70
2019-03-19T01:46:04.351Z,94.52
2019-03-19T01:47:09.943Z,94.59
2019-03-19T01:48:15.519Z,95.04
2019-03-19T01:49:21.480Z,95.22
2019-03-19T01:50:27.030Z,95.35
2019-03-19T01:51:32.592Z,94.86
2019-03-19T01:52:37.794Z,94.74
2019-03-19T01:53:43.406Z,94.45
2019-03-19T01:54:48.979Z,94.44
2019-03-19T01:56:04.556Z,94.37
2019-03-19T01:57:00.155Z,94.61
2019-03-19T01:58:05.738Z,94.55
2019-03-19T01:59:11.358Z,94.67
2019-03-19T02:00:17.082Z,94.30
2019-03-19T02:01:22.654Z,93.78
2019-03-19T02:02:28.232Z,93.78
2019-03-19T02:03:33.825Z,94.04
2019-03-19T02:04:39.425Z,94.14
2019-03-19T02:05:45.090Z,94.64
2019-03-19T02:06:50.641Z,95.13
2019-03-19T02:07:56.229Z,96.07
2019-03-19T02:09:01.816Z,96.25
2019-03-19T02:10:06.839Z,95.96
2019-03-19T02:11:12.395Z,95.77
2019-03-19T02:12:17.986Z,94.43
2019-03-19T02:13:23.574Z,94.40
2019-03-19T02:14:29.161Z,95.01
2019-03-19T02:15:34.718Z,95.36
2019-03-19T02:16:40.286Z,95.46
2019-03-19T02:17:45.533Z,94.81
2019-03-19T02:18:51.119Z,94.95
2019-03-19T02:19:56.751Z,94.34
2019-03-19T02:21:01.954Z,94.25
2019-03-19T02:22:07.529Z,94.33
2019-03-19T02:23:13.106Z,94.33
2019-03-19T02:24:18.709Z,94.82
2019-03-19T02:25:24.360Z,95.39
2019-03-19T02:26:29.959Z,95.60
2019-03-19T02:27:35.537Z,95.34
2019-03-19T02:28:41.123Z,95.18
2019-03-19T02:29:46.722Z,94.94
2019-03-19T02:30:52.306Z,94.85
2019-03-19T02:31:57.943Z,94.70
2019-03-19T02:33:03.534Z,94.99
2019-03-19T02:34:09.090Z,95.21
2019-03-19T02:35:14.481Z,94.95
2019-03-19T02:36:19.965Z,95.16
2019-03-19T02:37:25.599Z,95.27
2019-03-19T02:38:31.165Z,94.90
2019-03-19T02:39:36.856Z,93.69
2019-03-19T02:40:42.642Z,93.69
2019-03-19T02:41:48.205Z,93.87
2019-03-19T02:42:53.797Z,93.77
2019-03-19T02:43:59.403Z,93.71
2019-03-19T02:45:04.345Z,93.99
2019-03-19T02:46:09.924Z,93.93
2019-03-19T02:47:15.511Z,94.67
2019-03-19T02:48:21.122Z,94.70
2019-03-19T02:49:26.710Z,95.05
2019-03-19T02:50:32.329Z,94.67
2019-03-19T02:51:37.903Z,95.08
2019-03-19T02:52:43.480Z,95.21
2019-03-19T02:53:49.049Z,94.42
2019-03-19T02:54:54.680Z,93.87
2019-03-19T02:56:00.284Z,94.48
2019-03-19T02:57:05.852Z,95.16
2019-03-19T02:58:11.401Z,94.80
2019-03-19T02:59:16.657Z,94.43
2019-03-19T03:00:22.305Z,94.21
2019-03-19T03:01:27.950Z,94.28
2019-03-19T03:02:33.546Z,94.99
2019-03-19T03:03:39.126Z,95.83
2019-03-19T03:04:44.794Z,96.54
2019-03-19T03:05:50.454Z,97.14
2019-03-19T03:06:56.040Z,97.07
2019-03-19T03:08:01.658Z,95.63
2019-03-19T03:09:06.585Z,95.35
2019-03-19T03:10:11.497Z,95.27
2019-03-19T03:11:17.145Z,95.14
2019-03-19T03:12:22.764Z,95.16
2019-03-19T03:13:28.336Z,94.91
2019-03-19T03:14:33.900Z,95.22
2019-03-19T03:15:39.552Z,95.87
2019-03-19T03:16:45.205Z,95.86
2019-03-19T03:17:50.409Z,95.91
2019-03-19T03:18:55.632Z,95.62
2019-03-19T03:20:01.209Z,95.44
2019-03-19T03:21:06.853Z,95.48
2019-03-19T03:22:12.434Z,95.82
2019-03-19T03:23:18.008Z,95.71
2019-03-19T03:24:23.586Z,95.23
2019-03-19T03:25:29.182Z,94.68
2019-03-19T03:26:46.824Z,94.15
2019-03-19T03:27:40.388Z,94.19
2019-03-19T03:28:46.029Z,93.67
2019-03-19T03:29:51.329Z,94.24
2019-03-19T03:30:56.980Z,94.76
2019-03-19T03:32:02.571Z,94.46
2019-03-19T03:33:08.149Z,94.52
2019-03-19T03:34:13.696Z,93.92
2019-03-19T03:35:19.315Z,94.13
2019-03-19T03:36:24.891Z,94.61
2019-03-19T03:37:30.451Z,95.14
2019-03-19T03:38:36.064Z,95.28
2019-03-19T03:39:41.661Z,94.92
2019-03-19T03:40:47.394Z,94.32
2019-03-19T03:41:53.132Z,94.71
2019-03-19T03:42:58.620Z,94.32
2019-03-19T03:44:03.822Z,94.50
2019-03-19T03:45:08.661Z,94.46
2019-03-19T03:46:14.295Z,94.26
2019-03-19T03:47:19.862Z,95.52
2019-03-19T03:48:25.170Z,95.74
2019-03-19T03:49:30.740Z,95.58
2019-03-19T03:50:36.392Z,96.29
2019-03-19T03:51:42.029Z,96.03
2019-03-19T03:52:47.594Z,95.61
2019-03-19T03:53:53.207Z,95.90
2019-03-19T03:54:58.772Z,96.30
2019-03-19T03:56:04.412Z,96.01
2019-03-19T03:57:10.027Z,96.31
2019-03-19T03:58:15.644Z,96.26
2019-03-19T03:59:20.887Z,95.80
2019-03-19T04:00:26.555Z,95.57
2019-03-19T04:01:32.192Z,96.13
2019-03-19T04:02:37.805Z,95.38
2019-03-19T04:03:43.427Z,94.62
2019-03-19T04:04:48.665Z,95.54
2019-03-19T04:05:54.307Z,95.68
2019-03-19T04:06:59.906Z,95.67
2019-03-19T04:08:05.199Z,95.25
2019-03-19T04:09:10.817Z,95.77
2019-03-19T04:10:16.590Z,96.42
2019-03-19T04:11:22.489Z,96.55
2019-03-19T04:12:28.090Z,96.37
2019-03-19T04:13:33.661Z,96.61
2019-03-19T04:14:39.285Z,96.21
2019-03-19T04:15:44.701Z,96.29
2019-03-19T04:16:50.292Z,95.71
2019-03-19T04:17:55.931Z,95.65
2019-03-19T04:19:01.531Z,95.22
2019-03-19T04:20:06.502Z,95.71
2019-03-19T04:21:12.158Z,96.67
2019-03-19T04:22:17.743Z,96.81
2019-03-19T04:23:23.362Z,96.43
2019-03-19T04:24:28.612Z,95.72
2019-03-19T04:25:34.059Z,95.05
2019-03-19T04:26:39.685Z,94.70
2019-03-19T04:27:45.307Z,95.21
2019-03-19T04:28:50.834Z,96.21
2019-03-19T04:29:56.088Z,96.70
2019-03-19T04:31:01.708Z,97.40
2019-03-19T04:32:07.327Z,97.53
2019-03-19T04:33:12.993Z,97.03
2019-03-19T04:34:18.554Z,96.42
2019-03-19T04:35:24.129Z,96.69
2019-03-19T04:36:29.798Z,96.87
2019-03-19T04:37:35.482Z,96.24
2019-03-19T04:38:40.776Z,95.90
2019-03-19T04:39:46.411Z,95.57
2019-03-19T04:40:51.995Z,95.88
2019-03-19T04:41:57.639Z,96.19
2019-03-19T04:43:03.244Z,96.47
2019-03-19T04:44:08.501Z,96.89
2019-03-19T04:45:13.404Z,96.70
2019-03-19T04:46:18.688Z,96.56
2019-03-19T04:47:24.269Z,95.29
2019-03-19T04:48:29.841Z,95.31
2019-03-19T04:49:35.414Z,95.42
2019-03-19T04:50:41.059Z,95.65
2019-03-19T04:51:46.709Z,94.99
2019-03-19T04:52:52.306Z,94.72
2019-03-19T04:53:57.895Z,94.60
2019-03-19T04:55:03.133Z,94.73
2019-03-19T04:56:08.697Z,95.47
2019-03-19T04:57:14.308Z,94.90
2019-03-19T04:58:19.923Z,94.71
2019-03-19T04:59:28.359Z,95.07
2019-03-19T05:00:33.966Z,95.54
2019-03-19T05:01:39.615Z,95.60
2019-03-19T05:02:45.215Z,95.75
2019-03-19T05:03:50.820Z,95.41
2019-03-19T05:04:56.398Z,95.80
2019-03-19T05:06:02.036Z,95.87
2019-03-19T05:07:07.311Z,94.86
2019-03-19T05:08:12.904Z,94.93
2019-03-19T05:09:18.730Z,94.70
2019-03-19T05:10:24.296Z,94.89
2019-03-19T05:11:30.525Z,94.56
2019-03-19T05:12:36.202Z,94.61
2019-03-19T05:13:41.796Z,95.70
2019-03-19T05:14:47.411Z,95.05
2019-03-19T05:15:53.007Z,94.45
2019-03-19T05:16:58.651Z,94.90
2019-03-19T05:18:03.883Z,93.89
2019-03-19T05:19:09.456Z,94.64
2019-03-19T05:20:15.227Z,94.18
2019-03-19T05:21:20.779Z,94.32
2019-03-19T05:22:26.446Z,93.67
2019-03-19T05:23:32.042Z,94.09
2019-03-19T05:24:37.594Z,94.43
2019-03-19T05:25:43.189Z,94.91
2019-03-19T05:26:48.818Z,95.10
2019-03-19T05:27:54.476Z,94.47
2019-03-19T05:29:00.148Z,93.74
2019-03-19T05:30:10.595Z,93.69
2019-03-19T05:31:16.309Z,93.69
2019-03-19T05:32:21.980Z,93.59
2019-03-19T05:33:27.607Z,94.73
2019-03-19T05:34:33.312Z,94.37
2019-03-19T05:35:38.945Z,94.34
2019-03-19T05:36:44.225Z,93.77
2019-03-19T05:37:49.868Z,93.93
2019-03-19T05:38:55.469Z,94.46
2019-03-19T05:40:01.175Z,94.32
2019-03-19T05:41:06.785Z,93.68
2019-03-19T05:42:12.400Z,93.14
2019-03-19T05:43:18.128Z,93.32
2019-03-19T05:44:23.707Z,93.18
2019-03-19T05:45:29.322Z,93.32
2019-03-19T05:46:34.938Z,93.31
2019-03-19T05:47:40.964Z,93.65
2019-03-19T05:48:46.239Z,93.83
2019-03-19T05:49:51.797Z,94.74
2019-03-19T05:50:57.406Z,94.45
2019-03-19T05:52:03.067Z,93.87
2019-03-19T05:53:08.677Z,93.99
2019-03-19T05:54:14.354Z,93.55
2019-03-19T05:55:19.581Z,93.51
2019-03-19T05:56:25.148Z,93.91
2019-03-19T05:57:30.824Z,93.63
2019-03-19T05:58:36.429Z,93.48
2019-03-19T05:59:42.016Z,94.09
2019-03-19T06:00:48.117Z,93.85
2019-03-19T06:01:53.703Z,93.40
2019-03-19T06:02:59.355Z,92.91
2019-03-19T06:04:04.903Z,93.66
2019-03-19T06:05:09.814Z,92.88
2019-03-19T06:06:15.401Z,93.43
2019-03-19T06:07:21.018Z,93.42
2019-03-19T06:08:26.757Z,92.81
2019-03-19T06:09:32.442Z,93.81
2019-03-19T06:10:38.065Z,94.25
2019-03-19T06:11:44.093Z,93.31
2019-03-19T06:12:49.736Z,93.27
2019-03-19T06:13:55.337Z,93.66
2019-03-19T06:15:00.953Z,94.20
2019-03-19T06:16:06.557Z,93.66
2019-03-19T06:17:11.817Z,92.79
2019-03-19T06:18:17.403Z,92.59
2019-03-19T06:19:22.993Z,91.89
2019-03-19T06:20:28.592Z,91.89
2019-03-19T06:21:34.234Z,91.31
2019-03-19T06:22:39.846Z,91.26
2019-03-19T06:23:45.474Z,91.63
2019-03-19T06:24:51.178Z,91.39
2019-03-19T06:25:56.792Z,91.91
2019-03-19T06:27:02.393Z,92.10
2019-03-19T06:28:07.662Z,92.09
2019-03-19T06:29:13.266Z,91.31
2019-03-19T06:30:18.819Z,91.56
2019-03-19T06:31:24.408Z,91.86
2019-03-19T06:32:29.989Z,91.46
2019-03-19T06:33:35.582Z,91.94
2019-03-19T06:34:41.125Z,91.70
2019-03-19T06:35:46.723Z,91.81
2019-03-19T06:36:52.314Z,91.75
2019-03-19T06:37:57.569Z,91.72
2019-03-19T06:39:02.946Z,90.62
2019-03-19T06:40:12.386Z,90.26
2019-03-19T06:41:17.952Z,90.03
2019-03-19T06:42:23.609Z,90.90
2019-03-19T06:43:29.196Z,91.34
2019-03-19T06:44:34.770Z,91.98
2019-03-19T06:45:40.373Z,91.92
2019-03-19T06:46:45.937Z,91.65
2019-03-19T06:47:51.186Z,91.66
2019-03-19T06:48:56.719Z,90.56
2019-03-19T06:50:02.311Z,90.56
2019-03-19T06:51:07.911Z,90.15
2019-03-19T06:52:13.504Z,89.35
2019-03-19T06:53:19.129Z,88.98
2019-03-19T06:54:24.731Z,90.20
2019-03-19T06:55:30.284Z,90.66
2019-03-19T06:56:35.509Z,90.16
2019-03-19T06:57:40.760Z,89.65
2019-03-19T06:58:46.342Z,89.98
2019-03-19T06:59:51.929Z,88.94
2019-03-19T07:00:57.548Z,89.94
2019-03-19T07:02:03.208Z,88.98
2019-03-19T07:03:08.503Z,88.81
2019-03-19T07:04:14.090Z,89.40
2019-03-19T07:05:18.964Z,89.44
2019-03-19T07:06:24.985Z,89.40
2019-03-19T07:07:30.158Z,89.17
2019-03-19T07:08:35.970Z,90.34
2019-03-19T07:09:41.595Z,89.74
2019-03-19T07:10:47.195Z,89.11
2019-03-19T07:11:52.807Z,90.26
2019-03-19T07:12:58.511Z,90.34
2019-03-19T07:14:03.728Z,90.43
2019-03-19T07:15:09.426Z,90.95
2019-03-19T07:16:15.031Z,90.53
2019-03-19T07:17:20.646Z,89.99
2019-03-19T07:18:26.269Z,89.62
2019-03-19T07:19:31.822Z,88.75
2019-03-19T07:20:37.374Z,89.59
2019-03-19T07:21:42.955Z,89.99
2019-03-19T07:22:48.550Z,90.39
2019-03-19T07:23:54.192Z,89.30
2019-03-19T07:24:59.792Z,89.24
2019-03-19T07:26:04.668Z,88.82
2019-03-19T07:27:10.274Z,89.00
2019-03-19T07:28:22.021Z,88.76
2019-03-19T07:29:21.504Z,89.17
2019-03-19T07:30:26.132Z,89.13
2019-03-19T07:31:31.743Z,89.23
2019-03-19T07:32:40.369Z,88.37
2019-03-19T07:33:45.995Z,87.67
2019-03-19T07:34:51.552Z,87.70
2019-03-19T07:35:56.752Z,87.10
2019-03-19T07:37:02.357Z,87.02
2019-03-19T07:38:07.609Z,87.32
2019-03-19T07:39:13.197Z,87.06
2019-03-19T07:40:18.822Z,86.19
2019-03-19T07:41:24.429Z,85.90
2019-03-19T07:42:30.048Z,85.85
2019-03-19T07:43:35.684Z,86.65
2019-03-19T07:44:40.916Z,86.32
2019-03-19T07:45:46.499Z,85.21
2019-03-19T07:46:52.082Z,85.31
2019-03-19T07:47:57.772Z,84.68
2019-03-19T07:49:03.359Z,84.95
2019-03-19T07:50:08.221Z,84.43
2019-03-19T07:51:13.806Z,84.69
2019-03-19T07:52:19.433Z,84.07
2019-03-19T07:53:25.095Z,85.32
2019-03-19T07:54:30.644Z,85.29
2019-03-19T07:55:36.211Z,84.44
2019-03-19T07:56:41.790Z,84.28
2019-03-19T07:57:47.001Z,83.93
2019-03-19T07:58:52.582Z,83.94
2019-03-19T07:59:58.190Z,85.02
2019-03-19T08:01:03.813Z,85.42
2019-03-19T08:02:09.419Z,84.77
2019-03-19T08:03:16.313Z,85.21
2019-03-19T08:04:20.650Z,84.55
2019-03-19T08:05:32.955Z,84.44
2019-03-19T08:06:32.831Z,85.52
2019-03-19T08:07:37.480Z,84.50
2019-03-19T08:08:43.087Z,84.44
2019-03-19T08:09:51.524Z,83.60
2019-03-19T08:10:57.148Z,83.88
2019-03-19T08:12:02.722Z,84.79
2019-03-19T08:13:08.309Z,84.88
2019-03-19T08:14:13.904Z,85.35
2019-03-19T08:15:19.460Z,85.40
2019-03-19T08:16:27.679Z,86.18
2019-03-19T08:17:30.678Z,87.63
2019-03-19T08:18:36.338Z,90.59
2019-03-19T08:19:41.955Z,90.83
2019-03-19T08:20:47.515Z,90.42
2019-03-19T08:21:53.128Z,92.71
2019-03-19T08:22:58.883Z,93.32
2019-03-19T08:24:04.457Z,94.69
2019-03-19T08:25:10.264Z,96.86
2019-03-19T08:26:16.013Z,97.58
2019-03-19T08:27:21.644Z,97.39
2019-03-19T08:28:27.293Z,98.00
2019-03-19T08:29:34.638Z,99.27
2019-03-19T08:30:38.704Z,99.45
2019-03-19T08:31:44.553Z,100.00
2019-03-19T08:32:49.845Z,100.00
2019-03-19T08:33:55.515Z,100.00
2019-03-19T08:35:01.131Z,100.00
2019-03-19T08:36:09.532Z,100.00
2019-03-19T08:37:11.718Z,100.00
2019-03-19T08:38:17.356Z,100.00
2019-03-19T08:39:23.054Z,100.00
2019-03-19T08:40:28.743Z,100.00
2019-03-19T08:41:34.065Z,100.00
2019-03-19T08:42:39.712Z,100.00
2019-03-19T08:43:45.367Z,100.00
2019-03-19T08:44:51.033Z,100.00
2019-03-19T08:45:56.742Z,100.00
2019-03-19T08:47:02.380Z,100.00
2019-03-19T08:48:08.035Z,100.00
2019-03-19T08:49:13.706Z,100.00
2019-03-19T08:50:19.541Z,100.00
2019-03-19T08:51:25.212Z,100.00
2019-03-19T08:52:30.857Z,100.00
2019-03-19T08:53:36.463Z,100.00
2019-03-19T08:54:42.171Z,100.00
2019-03-19T08:55:47.802Z,100.00
2019-03-19T08:56:53.118Z,100.00
2019-03-19T08:57:58.707Z,100.00
2019-03-19T08:59:06.022Z,100.00
2019-03-19T09:00:11.406Z,100.00
2019-03-19T09:01:17.050Z,100.00
2019-03-19T09:02:22.749Z,100.00
2019-03-19T09:03:28.457Z,100.00
2019-03-19T09:04:34.133Z,100.00
2019-03-19T09:05:39.391Z,100.00
2019-03-19T09:06:45.019Z,100.00
2019-03-19T09:07:50.640Z,100.00
2019-03-19T09:08:56.247Z,100.00
2019-03-19T09:10:01.889Z,100.00
2019-03-19T09:11:07.538Z,100.00
2019-03-19T09:12:13.243Z,100.00
2019-03-19T09:13:18.959Z,100.00
2019-03-19T09:14:24.672Z,100.00
2019-03-19T09:15:30.011Z,100.00
2019-03-19T09:16:35.689Z,100.00
2019-03-19T09:17:41.387Z,100.00
2019-03-19T09:18:47.185Z,100.00
2019-03-19T09:19:52.894Z,100.00
2019-03-19T09:20:58.651Z,100.00
2019-03-19T09:22:04.272Z,100.00
2019-03-19T09:23:09.929Z,100.00
2019-03-19T09:24:15.643Z,100.00
2019-03-19T09:25:20.888Z,100.00
2019-03-19T09:26:26.469Z,100.00
2019-03-19T09:27:32.125Z,100.00
2019-03-19T09:28:37.758Z,100.00
2019-03-19T09:29:43.380Z,100.00
2019-03-19T09:30:49.015Z,100.00
2019-03-19T09:31:54.737Z,100.00
2019-03-19T09:33:00.454Z,100.00
2019-03-19T09:34:06.108Z,100.00
2019-03-19T09:35:11.115Z,97.10
2019-03-19T09:36:16.873Z,97.28
2019-03-19T09:37:22.512Z,97.95
2019-03-19T09:38:28.207Z,99.26
2019-03-19T09:39:33.885Z,97.94
2019-03-19T09:40:39.513Z,97.38
2019-03-19T09:41:45.296Z,98.95
2019-03-19T09:42:50.987Z,97.77
2019-03-19T09:43:56.627Z,95.34
2019-03-19T09:45:02.262Z,93.83
2019-03-19T09:46:07.911Z,93.53
2019-03-19T09:47:13.638Z,94.66
2019-03-19T09:48:19.278Z,95.55
2019-03-19T09:49:24.916Z,94.77
2019-03-19T09:50:30.757Z,93.83
2019-03-19T09:51:36.357Z,93.49
2019-03-19T09:52:42.009Z,92.13
2019-03-19T09:53:47.668Z,91.21
2019-03-19T09:54:53.316Z,91.64
2019-03-19T09:55:58.943Z,91.18
2019-03-19T09:57:04.564Z,92.77
2019-03-19T09:58:10.213Z,91.93
2019-03-19T09:59:15.896Z,92.19
2019-03-19T10:00:20.928Z,91.55
2019-03-19T10:01:26.520Z,90.75
2019-03-19T10:02:32.210Z,88.32
2019-03-19T10:03:37.837Z,86.75
2019-03-19T10:04:43.471Z,88.71
2019-03-19T10:05:49.079Z,89.49
2019-03-19T10:06:54.676Z,89.64
2019-03-19T10:08:00.314Z,90.95
2019-03-19T10:09:05.285Z,90.53
2019-03-19T10:10:12.901Z,90.42
2019-03-19T10:11:18.578Z,92.04
2019-03-19T10:12:24.262Z,90.75
2019-03-19T10:13:29.970Z,88.12
2019-03-19T10:14:35.592Z,87.09
2019-03-19T10:15:41.239Z,86.13
2019-03-19T10:16:46.882Z,85.88
2019-03-19T10:17:52.526Z,85.33
2019-03-19T10:18:58.123Z,85.90
2019-03-19T10:20:03.100Z,86.68
2019-03-19T10:21:08.774Z,85.75
2019-03-19T10:22:15.296Z,85.59
2019-03-19T10:23:20.022Z,84.95
2019-03-19T10:24:25.638Z,80.42
2019-03-19T10:25:31.295Z,81.97
2019-03-19T10:26:36.934Z,83.28
2019-03-19T10:27:42.636Z,82.54
2019-03-19T10:28:48.228Z,83.90
2019-03-19T10:29:53.862Z,80.87
2019-03-19T10:30:59.540Z,80.20
2019-03-19T10:32:04.921Z,81.83
2019-03-19T10:33:10.529Z,81.52
2019-03-19T10:34:16.206Z,80.80
2019-03-19T10:35:21.495Z,78.97
2019-03-19T10:36:27.128Z,79.18
2019-03-19T10:37:32.948Z,81.29
2019-03-19T10:38:38.581Z,79.85
2019-03-19T10:39:44.231Z,80.45
2019-03-19T10:40:49.928Z,82.31
2019-03-19T10:41:55.597Z,82.42
2019-03-19T10:43:01.228Z,80.64
2019-03-19T10:44:06.844Z,81.03
2019-03-19T10:45:15.401Z,81.18
2019-03-19T10:46:21.074Z,80.88
2019-03-19T10:47:26.695Z,82.10
2019-03-19T10:48:32.291Z,83.07
2019-03-19T10:49:37.890Z,82.17
2019-03-19T10:50:43.536Z,83.97
2019-03-19T10:51:49.164Z,84.16
2019-03-19T10:52:54.450Z,84.92
2019-03-19T10:54:00.137Z,88.04
2019-03-19T10:55:05.080Z,91.38
2019-03-19T10:56:10.754Z,94.78
2019-03-19T10:57:16.437Z,99.72
2019-03-19T10:58:22.125Z,100.00
2019-03-19T10:59:27.770Z,100.00
2019-03-19T11:00:33.459Z,100.00
2019-03-19T11:01:39.064Z,100.00
2019-03-19T11:02:44.429Z,100.00
2019-03-19T11:03:50.057Z,100.00
2019-03-19T11:04:55.721Z,100.00
2019-03-19T11:06:01.454Z,100.00
2019-03-19T11:07:07.096Z,100.00
2019-03-19T11:08:12.731Z,100.00
2019-03-19T11:09:18.316Z,100.00
2019-03-19T11:10:23.709Z,100.00
2019-03-19T11:11:29.366Z,100.00
2019-03-19T11:12:34.997Z,100.00
2019-03-19T11:13:40.586Z,100.00
2019-03-19T11:14:46.262Z,100.00
2019-03-19T11:15:51.950Z,100.00
2019-03-19T11:16:57.635Z,100.00
2019-03-19T11:18:03.269Z,100.00
2019-03-19T11:19:08.893Z,100.00
2019-03-19T11:20:18.322Z,100.00
2019-03-19T11:21:23.992Z,100.00
2019-03-19T11:22:29.590Z,100.00
2019-03-19T11:23:35.321Z,100.00
2019-03-19T11:24:40.959Z,100.00
2019-03-19T11:25:54.162Z,100.00
2019-03-19T11:26:52.371Z,100.00
2019-03-19T11:27:58.026Z,100.00
2019-03-19T11:29:03.689Z,100.00
2019-03-19T11:30:09.446Z,100.00
2019-03-19T11:31:15.122Z,100.00
2019-03-19T11:32:20.800Z,100.00
2019-03-19T11:33:26.477Z,100.00
2019-03-19T11:34:32.116Z,100.00
2019-03-19T11:35:37.405Z,100.00
2019-03-19T11:36:43.213Z,100.00
2019-03-19T11:37:48.576Z,100.00
2019-03-19T11:38:54.209Z,100.00
2019-03-19T11:39:59.482Z,100.00
2019-03-19T11:41:04.472Z,99.42
2019-03-19T11:42:10.585Z,94.81
2019-03-19T11:43:16.256Z,93.03
2019-03-19T11:44:21.931Z,94.25
2019-03-19T11:45:27.162Z,91.48
2019-03-19T11:46:32.817Z,92.20
2019-03-19T11:47:38.417Z,91.23
2019-03-19T11:48:44.056Z,93.30
2019-03-19T11:49:49.713Z,90.31
2019-03-19T11:50:55.332Z,87.84
2019-03-19T11:52:00.971Z,90.55
2019-03-19T11:53:05.908Z,83.52
2019-03-19T11:54:11.595Z,88.90
2019-03-19T11:55:16.469Z,82.13
2019-03-19T11:56:22.148Z,83.65
2019-03-19T11:57:27.726Z,82.19
2019-03-19T11:58:33.337Z,82.55
2019-03-19T11:59:38.967Z,84.05
2019-03-19T12:00:44.761Z,77.81
2019-03-19T12:01:50.499Z,79.36
2019-03-19T12:02:56.200Z,78.57
2019-03-19T12:04:01.802Z,76.16
2019-03-19T12:05:06.912Z,79.88
2019-03-19T12:06:12.541Z,79.64
2019-03-19T12:07:18.229Z,77.35
2019-03-19T12:08:23.873Z,79.43
2019-03-19T12:09:29.522Z,78.80
2019-03-19T12:10:35.152Z,77.64
2019-03-19T12:11:40.831Z,77.44
2019-03-19T12:12:46.520Z,79.32
2019-03-19T12:13:52.199Z,81.39
2019-03-19T12:14:57.833Z,82.82
2019-03-19T12:16:03.142Z,84.65
2019-03-19T12:17:08.772Z,85.60
2019-03-19T12:18:14.424Z,87.08
2019-03-19T12:19:20.049Z,86.23
2019-03-19T12:20:25.657Z,87.85
2019-03-19T12:21:31.317Z,90.61
2019-03-19T12:22:36.902Z,92.20
2019-03-19T12:23:42.544Z,92.99
2019-03-19T12:24:48.164Z,93.27
2019-03-19T12:25:53.775Z,92.31
2019-03-19T12:26:59.467Z,92.66
2019-03-19T12:28:04.806Z,92.09
2019-03-19T12:29:10.425Z,93.20
2019-03-19T12:30:22.629Z,91.39
2019-03-19T12:31:25.178Z,86.90
2019-03-19T12:32:30.865Z,85.08
2019-03-19T12:33:40.800Z,87.55
2019-03-19T12:34:42.229Z,88.87
2019-03-19T12:35:47.919Z,88.63
2019-03-19T12:36:53.611Z,87.79
2019-03-19T12:37:59.228Z,87.53
2019-03-19T12:39:03.958Z,85.11
2019-03-19T12:40:10.802Z,83.32
2019-03-19T12:41:16.448Z,84.94
2019-03-19T12:42:22.148Z,84.58
2019-03-19T12:43:27.816Z,83.40
2019-03-19T12:44:33.094Z,83.48
2019-03-19T12:45:38.780Z,83.20
2019-03-19T12:46:44.429Z,84.76
2019-03-19T12:47:50.098Z,84.02
2019-03-19T12:48:55.755Z,82.61
2019-03-19T12:50:01.381Z,84.57
2019-03-19T12:51:07.005Z,85.01
2019-03-19T12:52:12.657Z,85.83
2019-03-19T12:53:18.264Z,86.35
2019-03-19T12:54:23.913Z,88.71
2019-03-19T12:55:29.600Z,88.68
2019-03-19T12:56:34.837Z,87.52
2019-03-19T12:57:40.120Z,84.91
2019-03-19T12:58:45.709Z,84.65
2019-03-19T12:59:51.292Z,84.43
2019-03-19T13:00:56.917Z,83.86
2019-03-19T13:02:02.559Z,83.25
2019-03-19T13:03:08.241Z,84.18
2019-03-19T13:04:13.840Z,83.32
2019-03-19T13:05:18.758Z,84.51
2019-03-19T13:06:24.352Z,84.35
2019-03-19T13:07:30.002Z,81.89
2019-03-19T13:08:35.587Z,82.94
2019-03-19T13:09:41.204Z,83.77
2019-03-19T13:10:46.829Z,86.98
2019-03-19T13:11:52.450Z,85.09
2019-03-19T13:12:58.164Z,83.23
2019-03-19T13:14:03.844Z,80.78
2019-03-19T13:15:09.133Z,79.40
2019-03-19T13:16:14.744Z,80.41
2019-03-19T13:17:20.375Z,80.96
2019-03-19T13:18:25.746Z,82.00
2019-03-19T13:19:31.352Z,82.07
2019-03-19T13:20:36.696Z,81.99
2019-03-19T13:21:42.285Z,81.54
2019-03-19T13:22:47.567Z,80.97
2019-03-19T13:23:53.131Z,82.11
2019-03-19T13:24:58.704Z,78.20
2019-03-19T13:26:04.058Z,78.86
2019-03-19T13:27:09.734Z,79.18
2019-03-19T13:28:15.385Z,77.46
2019-03-19T13:29:20.996Z,78.25
2019-03-19T13:30:26.747Z,78.36
2019-03-19T13:31:32.335Z,77.18
2019-03-19T13:32:37.993Z,74.96
2019-03-19T13:33:43.617Z,72.66
2019-03-19T13:34:49.233Z,72.99
2019-03-19T13:35:54.823Z,75.06
2019-03-19T13:37:00.430Z,76.29
2019-03-19T13:38:05.668Z,73.61
2019-03-19T13:39:11.288Z,76.25
2019-03-19T13:40:16.184Z,75.92
2019-03-19T13:41:21.803Z,72.01
2019-03-19T13:42:27.423Z,73.24
2019-03-19T13:43:33.037Z,71.57
2019-03-19T13:44:38.592Z,71.70
2019-03-19T13:45:44.176Z,70.21
2019-03-19T13:46:49.797Z,69.81
2019-03-19T13:47:55.484Z,68.56
2019-03-19T13:49:01.118Z,69.71
2019-03-19T13:50:06.765Z,69.44
2019-03-19T13:51:12.386Z,69.52
2019-03-19T13:52:17.952Z,69.80
2019-03-19T13:53:23.584Z,71.69
2019-03-19T13:54:29.178Z,65.60
2019-03-19T13:55:34.790Z,63.17
2019-03-19T13:56:40.406Z,63.48
2019-03-19T13:57:45.649Z,63.45
2019-03-19T13:58:51.266Z,64.54
2019-03-19T13:59:56.865Z,63.99
2019-03-19T14:01:02.455Z,63.45